sensor_id;sensor_type;location;lat;lon;timestamp;pressure;altitude;pressure_sealevel;temperature;humidity
55550;BME280;41397;49.972;18.944;2022-12-10T00:00:34;100518.92;;;3.22;93.48
55550;BME280;41397;49.972;18.944;2022-12-10T00:03:41;100517.30;;;3.19;93.49
55550;BME280;41397;49.972;18.944;2022-12-10T00:06:43;100522.59;;;3.21;93.50
55550;BME280;41397;49.972;18.944;2022-12-10T00:09:44;100532.54;;;3.20;93.00
55550;BME280;41397;49.972;18.944;2022-12-10T00:12:45;100525.55;;;3.16;93.04
55550;BME280;41397;49.972;18.944;2022-12-10T00:15:47;100522.09;;;3.14;93.46
55550;BME280;41397;49.972;18.944;2022-12-10T00:18:49;100506.63;;;3.16;93.21
55550;BME280;41397;49.972;18.944;2022-12-10T00:21:50;100510.05;;;3.20;93.14
55550;BME280;41397;49.972;18.944;2022-12-10T00:24:52;100508.39;;;3.17;93.16
55550;BME280;41397;49.972;18.944;2022-12-10T00:27:53;100515.77;;;3.14;92.81
55550;BME280;41397;49.972;18.944;2022-12-10T00:30:54;100523.64;;;3.18;92.93
55550;BME280;41397;49.972;18.944;2022-12-10T00:33:57;100517.20;;;3.21;93.15
55550;BME280;41397;49.972;18.944;2022-12-10T00:36:59;100524.50;;;3.19;92.93
55550;BME280;41397;49.972;18.944;2022-12-10T00:40:00;100530.18;;;3.14;92.92
55550;BME280;41397;49.972;18.944;2022-12-10T00:43:01;100518.40;;;3.15;92.84
55550;BME280;41397;49.972;18.944;2022-12-10T00:46:03;100520.86;;;3.20;93.02
55550;BME280;41397;49.972;18.944;2022-12-10T00:49:04;100530.63;;;3.22;93.07
55550;BME280;41397;49.972;18.944;2022-12-10T00:52:07;100528.87;;;3.21;92.89
55550;BME280;41397;49.972;18.944;2022-12-10T00:55:09;100536.98;;;3.21;92.79
55550;BME280;41397;49.972;18.944;2022-12-10T00:58:10;100537.77;;;3.23;93.03
55550;BME280;41397;49.972;18.944;2022-12-10T01:01:21;100545.63;;;3.28;92.86
55550;BME280;41397;49.972;18.944;2022-12-10T01:04:23;100551.05;;;3.28;92.72
55550;BME280;41397;49.972;18.944;2022-12-10T01:07:24;100552.77;;;3.29;92.64
55550;BME280;41397;49.972;18.944;2022-12-10T01:10:26;100558.87;;;3.32;92.61
55550;BME280;41397;49.972;18.944;2022-12-10T01:13:27;100550.76;;;3.32;92.67
55550;BME280;41397;49.972;18.944;2022-12-10T01:16:28;100554.49;;;3.30;92.58
55550;BME280;41397;49.972;18.944;2022-12-10T01:19:31;100561.49;;;3.34;92.51
55550;BME280;41397;49.972;18.944;2022-12-10T01:22:32;100556.16;;;3.32;92.38
55550;BME280;41397;49.972;18.944;2022-12-10T01:25:34;100564.13;;;3.36;92.21
55550;BME280;41397;49.972;18.944;2022-12-10T01:28:37;100562.37;;;3.34;92.23
55550;BME280;41397;49.972;18.944;2022-12-10T01:31:38;100561.31;;;3.37;92.30
55550;BME280;41397;49.972;18.944;2022-12-10T01:34:40;100564.82;;;3.39;92.15
55550;BME280;41397;49.972;18.944;2022-12-10T01:37:41;100570.05;;;3.42;92.23
55550;BME280;41397;49.972;18.944;2022-12-10T01:40:42;100574.59;;;3.42;92.04
55550;BME280;41397;49.972;18.944;2022-12-10T01:46:58;100571.54;;;3.48;92.05
55550;BME280;41397;49.972;18.944;2022-12-10T01:50:02;100565.16;;;3.49;91.78
55550;BME280;41397;49.972;18.944;2022-12-10T01:53:06;100563.26;;;3.51;92.01
55550;BME280;41397;49.972;18.944;2022-12-10T01:56:12;100557.77;;;3.52;91.99
55550;BME280;41397;49.972;18.944;2022-12-10T01:59:14;100561.41;;;3.51;92.19
55550;BME280;41397;49.972;18.944;2022-12-10T02:05:38;100567.96;;;3.47;92.12
55550;BME280;41397;49.972;18.944;2022-12-10T02:08:48;100566.20;;;3.46;92.20
55550;BME280;41397;49.972;18.944;2022-12-10T02:12:01;100566.30;;;3.45;92.16
55550;BME280;41397;49.972;18.944;2022-12-10T02:18:24;100579.03;;;3.43;92.41
55550;BME280;41397;49.972;18.944;2022-12-10T02:21:33;100594.31;;;3.44;92.16
55550;BME280;41397;49.972;18.944;2022-12-10T02:24:36;100601.16;;;3.33;92.13
55550;BME280;41397;49.972;18.944;2022-12-10T02:30:51;100597.67;;;3.31;92.24
55550;BME280;41397;49.972;18.944;2022-12-10T02:33:57;100596.00;;;3.29;92.54
55550;BME280;41397;49.972;18.944;2022-12-10T02:37:04;100594.10;;;3.31;92.34
55550;BME280;41397;49.972;18.944;2022-12-10T02:40:13;100583.63;;;3.25;92.54
55550;BME280;41397;49.972;18.944;2022-12-10T02:43:17;100580.83;;;3.26;92.38
55550;BME280;41397;49.972;18.944;2022-12-10T02:46:19;100577.79;;;3.32;92.59
55550;BME280;41397;49.972;18.944;2022-12-10T02:49:23;100587.04;;;3.28;92.53
55550;BME280;41397;49.972;18.944;2022-12-10T02:52:26;100579.62;;;3.32;92.55
55550;BME280;41397;49.972;18.944;2022-12-10T02:55:38;100583.63;;;3.25;92.55
55550;BME280;41397;49.972;18.944;2022-12-10T02:58:49;100590.60;;;3.29;92.36
55550;BME280;41397;49.972;18.944;2022-12-10T03:02:00;100589.63;;;3.30;92.40
55550;BME280;41397;49.972;18.944;2022-12-10T03:11:29;100615.72;;;3.31;92.46
55550;BME280;41397;49.972;18.944;2022-12-10T03:14:32;100613.72;;;3.34;92.18
55550;BME280;41397;49.972;18.944;2022-12-10T03:17:36;100615.63;;;3.32;92.28
55550;BME280;41397;49.972;18.944;2022-12-10T03:20:41;100616.59;;;3.31;92.40
55550;BME280;41397;49.972;18.944;2022-12-10T03:23:46;100616.76;;;3.28;92.24
55550;BME280;41397;49.972;18.944;2022-12-10T03:26:52;100621.20;;;3.29;92.31
55550;BME280;41397;49.972;18.944;2022-12-10T03:29:56;100620.27;;;3.30;92.26
55550;BME280;41397;49.972;18.944;2022-12-10T03:32:59;100623.66;;;3.34;92.40
55550;BME280;41397;49.972;18.944;2022-12-10T03:36:00;100618.43;;;3.31;92.37
55550;BME280;41397;49.972;18.944;2022-12-10T03:39:02;100614.93;;;3.29;92.30
55550;BME280;41397;49.972;18.944;2022-12-10T03:42:05;100613.09;;;3.29;92.30
55550;BME280;41397;49.972;18.944;2022-12-10T03:45:07;100620.27;;;3.30;92.32
55550;BME280;41397;49.972;18.944;2022-12-10T03:48:09;100622.17;;;3.28;92.51
55550;BME280;41397;49.972;18.944;2022-12-10T03:51:10;100625.74;;;3.29;92.25
55550;BME280;41397;49.972;18.944;2022-12-10T03:54:11;100617.80;;;3.26;92.19
55550;BME280;41397;49.972;18.944;2022-12-10T03:57:12;100624.08;;;3.26;92.32
55550;BME280;41397;49.972;18.944;2022-12-10T04:00:14;100628.55;;;3.27;92.53
55550;BME280;41397;49.972;18.944;2022-12-10T04:03:17;100633.68;;;3.32;92.55
55550;BME280;41397;49.972;18.944;2022-12-10T04:06:19;100621.93;;;3.33;92.50
55550;BME280;41397;49.972;18.944;2022-12-10T04:09:20;100620.97;;;3.34;92.54
55550;BME280;41397;49.972;18.944;2022-12-10T04:12:22;100630.11;;;3.31;92.51
55550;BME280;41397;49.972;18.944;2022-12-10T04:15:25;100649.89;;;3.32;92.38
55550;BME280;41397;49.972;18.944;2022-12-10T04:18:44;100667.77;;;3.34;92.42
55550;BME280;41397;49.972;18.944;2022-12-10T04:21:46;100669.38;;;3.39;92.17
55550;BME280;41397;49.972;18.944;2022-12-10T04:24:59;100658.11;;;3.30;92.39
55550;BME280;41397;49.972;18.944;2022-12-10T04:28:12;100676.69;;;3.37;92.39
55550;BME280;41397;49.972;18.944;2022-12-10T04:31:13;100673.98;;;3.37;92.58
55550;BME280;41397;49.972;18.944;2022-12-10T04:34:14;100673.11;;;3.36;92.65
55550;BME280;41397;49.972;18.944;2022-12-10T04:37:17;100666.57;;;3.40;92.67
55550;BME280;41397;49.972;18.944;2022-12-10T04:40:18;100672.84;;;3.41;92.71
55550;BME280;41397;49.972;18.944;2022-12-10T04:43:19;100678.42;;;3.38;93.06
55550;BME280;41397;49.972;18.944;2022-12-10T04:46:22;100689.16;;;3.39;92.99
55550;BME280;41397;49.972;18.944;2022-12-10T04:49:24;100696.58;;;3.36;93.12
55550;BME280;41397;49.972;18.944;2022-12-10T04:52:25;100692.10;;;3.34;92.78
55550;BME280;41397;49.972;18.944;2022-12-10T04:55:26;100698.31;;;3.37;93.23
55550;BME280;41397;49.972;18.944;2022-12-10T04:58:30;100708.24;;;3.36;93.23
55550;BME280;41397;49.972;18.944;2022-12-10T05:01:33;100709.12;;;3.37;93.10
55550;BME280;41397;49.972;18.944;2022-12-10T05:04:34;100720.50;;;3.26;93.14
55550;BME280;41397;49.972;18.944;2022-12-10T05:07:35;100724.87;;;3.28;93.03
55550;BME280;41397;49.972;18.944;2022-12-10T05:10:38;100722.73;;;3.18;93.15
55550;BME280;41397;49.972;18.944;2022-12-10T05:13:40;100723.14;;;3.27;93.32
55550;BME280;41397;49.972;18.944;2022-12-10T05:16:42;100713.96;;;3.30;93.40
55550;BME280;41397;49.972;18.944;2022-12-10T05:19:43;100705.71;;;3.33;93.23
55550;BME280;41397;49.972;18.944;2022-12-10T05:22:46;100706.65;;;3.32;93.12
55550;BME280;41397;49.972;18.944;2022-12-10T05:26:17;100709.36;;;3.32;93.04
55550;BME280;41397;49.972;18.944;2022-12-10T05:29:13;100693.93;;;3.34;93.06
55550;BME280;41397;49.972;18.944;2022-12-10T05:32:15;100683.13;;;3.34;92.84
55550;BME280;41397;49.972;18.944;2022-12-10T05:35:16;100683.06;;;3.36;92.86
55550;BME280;41397;49.972;18.944;2022-12-10T05:38:17;100680.66;;;3.29;92.89
55550;BME280;41397;49.972;18.944;2022-12-10T05:41:21;100678.05;;;3.28;92.85
55550;BME280;41397;49.972;18.944;2022-12-10T05:44:23;100673.84;;;3.22;93.45
55550;BME280;41397;49.972;18.944;2022-12-10T05:47:25;100673.84;;;3.22;93.18
55550;BME280;41397;49.972;18.944;2022-12-10T05:50:26;100675.52;;;3.25;93.26
55550;BME280;41397;49.972;18.944;2022-12-10T05:53:27;100668.45;;;3.22;93.53
55550;BME280;41397;49.972;18.944;2022-12-10T05:56:29;100672.72;;;3.26;93.55
55550;BME280;41397;49.972;18.944;2022-12-10T05:59:30;100664.54;;;3.28;93.31
55550;BME280;41397;49.972;18.944;2022-12-10T06:02:34;100667.31;;;3.26;93.34
55550;BME280;41397;49.972;18.944;2022-12-10T06:05:38;100686.93;;;3.30;93.42
55550;BME280;41397;49.972;18.944;2022-12-10T06:08:40;100691.31;;;3.32;93.32
55550;BME280;41397;49.972;18.944;2022-12-10T06:11:41;100699.34;;;3.34;93.29
55550;BME280;41397;49.972;18.944;2022-12-10T06:14:43;100703.48;;;3.24;93.41
55550;BME280;41397;49.972;18.944;2022-12-10T06:17:44;100717.45;;;3.32;93.44
55550;BME280;41397;49.972;18.944;2022-12-10T06:20:45;100732.64;;;3.34;93.56
55550;BME280;41397;49.972;18.944;2022-12-10T06:23:48;100734.32;;;3.37;93.48
55550;BME280;41397;49.972;18.944;2022-12-10T06:26:52;100744.16;;;3.38;93.96
55550;BME280;41397;49.972;18.944;2022-12-10T06:29:53;100753.16;;;3.39;93.78
55550;BME280;41397;49.972;18.944;2022-12-10T06:32:54;100751.50;;;3.36;93.59
55550;BME280;41397;49.972;18.944;2022-12-10T06:35:56;100758.48;;;3.40;93.49
55550;BME280;41397;49.972;18.944;2022-12-10T06:38:57;100776.47;;;3.41;93.73
55550;BME280;41397;49.972;18.944;2022-12-10T06:41:58;100790.69;;;3.45;93.67
55550;BME280;41397;49.972;18.944;2022-12-10T06:45:00;100793.29;;;3.46;93.58
55550;BME280;41397;49.972;18.944;2022-12-10T06:48:01;100792.26;;;3.49;93.90
55550;BME280;41397;49.972;18.944;2022-12-10T06:51:03;100807.23;;;3.39;93.04
55550;BME280;41397;49.972;18.944;2022-12-10T06:54:05;100804.53;;;3.39;93.04
55550;BME280;41397;49.972;18.944;2022-12-10T06:57:06;100791.66;;;3.44;93.17
55550;BME280;41397;49.972;18.944;2022-12-10T07:00:08;100772.47;;;3.48;93.24
55550;BME280;41397;49.972;18.944;2022-12-10T07:03:11;100770.63;;;3.49;93.32
55550;BME280;41397;49.972;18.944;2022-12-10T07:06:12;100773.20;;;3.52;93.12
55550;BME280;41397;49.972;18.944;2022-12-10T07:09:14;100779.38;;;3.54;93.25
55550;BME280;41397;49.972;18.944;2022-12-10T07:12:16;100781.91;;;3.57;93.10
55550;BME280;41397;49.972;18.944;2022-12-10T07:15:18;100784.78;;;3.54;93.12
55550;BME280;41397;49.972;18.944;2022-12-10T07:18:19;100783.75;;;3.56;93.14
55550;BME280;41397;49.972;18.944;2022-12-10T07:21:23;100778.28;;;3.58;92.95
55550;BME280;41397;49.972;18.944;2022-12-10T07:24:25;100782.88;;;3.56;92.67
55550;BME280;41397;49.972;18.944;2022-12-10T07:27:26;100794.49;;;3.58;92.89
55550;BME280;41397;49.972;18.944;2022-12-10T07:30:28;100789.33;;;3.53;92.59
55550;BME280;41397;49.972;18.944;2022-12-10T07:33:29;100782.25;;;3.51;92.86
55550;BME280;41397;49.972;18.944;2022-12-10T07:36:30;100786.63;;;3.53;92.61
55550;BME280;41397;49.972;18.944;2022-12-10T07:39:35;100796.40;;;3.56;92.91
55550;BME280;41397;49.972;18.944;2022-12-10T07:42:37;100789.09;;;3.58;93.03
55550;BME280;41397;49.972;18.944;2022-12-10T07:45:38;100787.25;;;3.59;92.99
55550;BME280;41397;49.972;18.944;2022-12-10T07:48:41;100776.60;;;3.55;92.62
55550;BME280;41397;49.972;18.944;2022-12-10T07:51:47;100781.91;;;3.57;92.76
55550;BME280;41397;49.972;18.944;2022-12-10T07:54:49;100784.62;;;3.57;92.87
55550;BME280;41397;49.972;18.944;2022-12-10T07:57:50;100792.99;;;3.52;92.50
55550;BME280;41397;49.972;18.944;2022-12-10T08:00:52;100793.06;;;3.51;92.69
55550;BME280;41397;49.972;18.944;2022-12-10T08:03:55;100795.77;;;3.51;92.66
55550;BME280;41397;49.972;18.944;2022-12-10T08:06:59;100795.59;;;3.54;92.96
55550;BME280;41397;49.972;18.944;2022-12-10T08:10:00;100783.85;;;3.55;92.96
55550;BME280;41397;49.972;18.944;2022-12-10T08:13:02;100795.44;;;3.57;93.13
55550;BME280;41397;49.972;18.944;2022-12-10T08:16:07;100789.25;;;3.55;93.02
55550;BME280;41397;49.972;18.944;2022-12-10T08:19:09;100796.17;;;3.61;93.38
55550;BME280;41397;49.972;18.944;2022-12-10T08:22:10;100789.09;;;3.58;93.37
55550;BME280;41397;49.972;18.944;2022-12-10T08:25:11;100784.38;;;3.62;93.31
55550;BME280;41397;49.972;18.944;2022-12-10T08:28:13;100789.96;;;3.59;93.11
55550;BME280;41397;49.972;18.944;2022-12-10T08:31:16;100796.00;;;3.64;93.11
55550;BME280;41397;49.972;18.944;2022-12-10T08:34:18;100799.91;;;3.58;93.14
55550;BME280;41397;49.972;18.944;2022-12-10T08:37:19;100798.07;;;3.59;92.65
55550;BME280;41397;49.972;18.944;2022-12-10T08:40:21;100810.46;;;3.63;92.92
55550;BME280;41397;49.972;18.944;2022-12-10T08:43:22;100816.77;;;3.63;92.93
55550;BME280;41397;49.972;18.944;2022-12-10T08:46:24;100814.07;;;3.63;92.68
55550;BME280;41397;49.972;18.944;2022-12-10T08:49:27;100817.54;;;3.65;92.75
55550;BME280;41397;49.972;18.944;2022-12-10T08:52:29;100830.12;;;3.66;92.86
55550;BME280;41397;49.972;18.944;2022-12-10T08:55:30;100809.99;;;3.72;92.52
55550;BME280;41397;49.972;18.944;2022-12-10T08:58:32;100799.88;;;3.75;92.55
55550;BME280;41397;49.972;18.944;2022-12-10T09:01:33;100778.34;;;3.74;92.06
55550;BME280;41397;49.972;18.944;2022-12-10T09:04:34;100776.91;;;3.67;92.15
55550;BME280;41397;49.972;18.944;2022-12-10T09:07:35;100794.63;;;3.72;92.14
55550;BME280;41397;49.972;18.944;2022-12-10T09:10:38;100795.34;;;3.76;92.10
55550;BME280;41397;49.972;18.944;2022-12-10T09:13:40;100797.00;;;3.78;91.76
55550;BME280;41397;49.972;18.944;2022-12-10T09:16:42;100798.77;;;3.80;91.87
55550;BME280;41397;49.972;18.944;2022-12-10T09:19:43;100802.24;;;3.82;91.64
55550;BME280;41397;49.972;18.944;2022-12-10T09:22:45;100800.34;;;3.84;91.75
55550;BME280;41397;49.972;18.944;2022-12-10T09:25:46;100786.12;;;3.80;91.53
55550;BME280;41397;49.972;18.944;2022-12-10T09:28:48;100786.01;;;3.82;91.40
55550;BME280;41397;49.972;18.944;2022-12-10T09:31:50;100774.43;;;3.80;91.50
55550;BME280;41397;49.972;18.944;2022-12-10T09:34:52;100772.49;;;3.82;91.44
55550;BME280;41397;49.972;18.944;2022-12-10T09:37:54;100778.63;;;3.85;91.53
55550;BME280;41397;49.972;18.944;2022-12-10T09:41:01;100777.77;;;3.85;91.56
55550;BME280;41397;49.972;18.944;2022-12-10T09:47:15;100776.96;;;3.83;91.53
55550;BME280;41397;49.972;18.944;2022-12-10T09:53:31;100775.46;;;3.77;90.95
55550;BME280;41397;49.972;18.944;2022-12-10T09:56:35;100771.89;;;3.76;91.06
55550;BME280;41397;49.972;18.944;2022-12-10T09:59:40;100773.45;;;3.81;91.07
55550;BME280;41397;49.972;18.944;2022-12-10T10:02:43;100785.88;;;3.85;91.07
55550;BME280;41397;49.972;18.944;2022-12-10T10:05:51;100782.27;;;3.84;90.82
55550;BME280;41397;49.972;18.944;2022-12-10T10:08:56;100784.11;;;3.84;91.06
55550;BME280;41397;49.972;18.944;2022-12-10T10:11:59;100783.23;;;3.83;90.93
55550;BME280;41397;49.972;18.944;2022-12-10T10:15:24;100784.28;;;3.81;90.93
55550;BME280;41397;49.972;18.944;2022-12-10T10:18:29;100774.09;;;3.86;90.88
55550;BME280;41397;49.972;18.944;2022-12-10T10:21:32;100774.43;;;3.80;90.66
55550;BME280;41397;49.972;18.944;2022-12-10T10:24:36;100776.39;;;3.76;90.50
55550;BME280;41397;49.972;18.944;2022-12-10T10:27:38;100766.21;;;3.81;90.89
55550;BME280;41397;49.972;18.944;2022-12-10T10:30:42;100772.25;;;3.86;90.75
55550;BME280;41397;49.972;18.944;2022-12-10T10:33:54;100773.12;;;3.87;90.61
55550;BME280;41397;49.972;18.944;2022-12-10T10:37:00;100774.61;;;3.92;90.95
55550;BME280;41397;49.972;18.944;2022-12-10T10:40:05;100783.94;;;3.87;90.70
55550;BME280;41397;49.972;18.944;2022-12-10T10:43:15;100783.08;;;3.86;90.38
55550;BME280;41397;49.972;18.944;2022-12-10T10:46:23;100772.19;;;3.88;90.62
55550;BME280;41397;49.972;18.944;2022-12-10T10:49:30;100771.22;;;3.89;90.60
55550;BME280;41397;49.972;18.944;2022-12-10T10:52:38;100765.73;;;3.90;90.49
55550;BME280;41397;49.972;18.944;2022-12-10T10:55:41;100778.52;;;3.87;90.22
55550;BME280;41397;49.972;18.944;2022-12-10T11:05:20;100762.24;;;3.71;90.34
55550;BME280;41397;49.972;18.944;2022-12-10T11:08:30;100780.70;;;3.80;90.49
55550;BME280;41397;49.972;18.944;2022-12-10T11:11:39;100775.99;;;3.84;90.16
55550;BME280;41397;49.972;18.944;2022-12-10T11:14:44;100776.10;;;3.82;90.35
55550;BME280;41397;49.972;18.944;2022-12-10T11:17:49;100764.24;;;3.85;90.31
55550;BME280;41397;49.972;18.944;2022-12-10T11:21:19;100772.19;;;3.88;90.27
55550;BME280;41397;49.972;18.944;2022-12-10T11:24:11;100762.40;;;3.85;90.31
55550;BME280;41397;49.972;18.944;2022-12-10T11:27:30;100766.89;;;3.69;90.32
55550;BME280;41397;49.972;18.944;2022-12-10T11:30:32;100781.33;;;3.85;90.42
55550;BME280;41397;49.972;18.944;2022-12-10T11:40:22;100778.12;;;3.94;90.29
55550;BME280;41397;49.972;18.944;2022-12-10T11:53:24;100761.54;;;3.85;90.26
55550;BME280;41397;49.972;18.944;2022-12-10T11:59:36;100767.70;;;3.87;89.97
55550;BME280;41397;49.972;18.944;2022-12-10T12:15:59;100754.12;;;3.88;89.97
55550;BME280;41397;49.972;18.944;2022-12-10T12:22:25;100753.48;;;3.83;89.84
55550;BME280;41397;49.972;18.944;2022-12-10T12:25:37;100750.95;;;3.80;89.96
55550;BME280;41397;49.972;18.944;2022-12-10T12:28:46;100760.63;;;3.84;90.20
55550;BME280;41397;49.972;18.944;2022-12-10T12:35:55;100756.35;;;3.80;90.16
55550;BME280;41397;49.972;18.944;2022-12-10T12:45:01;100754.12;;;3.88;90.11
55550;BME280;41397;49.972;18.944;2022-12-10T12:51:26;100762.47;;;3.84;90.36
55550;BME280;41397;49.972;18.944;2022-12-10T12:54:28;100763.61;;;3.80;90.21
55550;BME280;41397;49.972;18.944;2022-12-10T12:57:41;100760.63;;;3.84;90.49
55550;BME280;41397;49.972;18.944;2022-12-10T13:00:47;100759.06;;;3.80;90.12
55550;BME280;41397;49.972;18.944;2022-12-10T13:03:50;100767.08;;;3.82;90.38
55550;BME280;41397;49.972;18.944;2022-12-10T13:19:46;100782.45;;;3.81;90.18
55550;BME280;41397;49.972;18.944;2022-12-10T13:26:01;100796.24;;;3.76;90.39
55550;BME280;41397;49.972;18.944;2022-12-10T13:32:41;100789.52;;;3.84;90.25
55550;BME280;41397;49.972;18.944;2022-12-10T13:35:31;100789.69;;;3.81;90.00
55550;BME280;41397;49.972;18.944;2022-12-10T13:38:40;100791.35;;;3.83;90.21
55550;BME280;41397;49.972;18.944;2022-12-10T13:58:21;100803.64;;;3.55;90.40
55550;BME280;41397;49.972;18.944;2022-12-10T14:01:33;100798.30;;;3.54;90.52
55550;BME280;41397;49.972;18.944;2022-12-10T14:07:50;100806.25;;;3.57;90.85
55550;BME280;41397;49.972;18.944;2022-12-10T14:10:56;100802.67;;;3.56;90.97
55550;BME280;41397;49.972;18.944;2022-12-10T14:14:00;100798.14;;;3.57;90.86
55550;BME280;41397;49.972;18.944;2022-12-10T14:17:14;100800.94;;;3.55;90.94
55550;BME280;41397;49.972;18.944;2022-12-10T14:20:23;100802.77;;;3.55;90.92
55550;BME280;41397;49.972;18.944;2022-12-10T14:23:30;100799.11;;;3.56;90.93
55550;BME280;41397;49.972;18.944;2022-12-10T14:26:36;100796.95;;;3.63;90.92
55550;BME280;41397;49.972;18.944;2022-12-10T14:29:44;100789.73;;;3.63;90.83
55550;BME280;41397;49.972;18.944;2022-12-10T14:32:47;100791.46;;;3.64;90.76
55550;BME280;41397;49.972;18.944;2022-12-10T14:35:52;100803.42;;;3.60;90.92
55550;BME280;41397;49.972;18.944;2022-12-10T14:38:54;100808.82;;;3.60;91.91
55550;BME280;41397;49.972;18.944;2022-12-10T14:42:03;100810.46;;;3.63;92.66
55550;BME280;41397;49.972;18.944;2022-12-10T14:45:12;100812.57;;;3.58;92.35
55550;BME280;41397;49.972;18.944;2022-12-10T14:48:15;100821.38;;;3.61;91.91
55550;BME280;41397;49.972;18.944;2022-12-10T14:51:23;100823.51;;;3.54;91.67
55550;BME280;41397;49.972;18.944;2022-12-10T14:54:32;100817.97;;;3.58;91.68
55550;BME280;41397;49.972;18.944;2022-12-10T14:57:39;100807.45;;;3.51;91.63
55550;BME280;41397;49.972;18.944;2022-12-10T15:00:42;100811.05;;;3.52;91.67
55550;BME280;41397;49.972;18.944;2022-12-10T15:03:46;100804.45;;;3.58;91.23
55550;BME280;41397;49.972;18.944;2022-12-10T15:06:48;100811.66;;;3.57;91.38
55550;BME280;41397;49.972;18.944;2022-12-10T15:09:51;100809.86;;;3.58;91.44
55550;BME280;41397;49.972;18.944;2022-12-10T15:12:54;100807.38;;;3.53;91.23
55550;BME280;41397;49.972;18.944;2022-12-10T15:15:56;100813.49;;;3.56;91.35
55550;BME280;41397;49.972;18.944;2022-12-10T15:19:08;100819.16;;;3.52;91.28
55550;BME280;41397;49.972;18.944;2022-12-10T15:22:20;100817.23;;;3.54;91.32
55550;BME280;41397;49.972;18.944;2022-12-10T15:25:27;100816.70;;;3.47;91.31
55550;BME280;41397;49.972;18.944;2022-12-10T15:28:37;100808.00;;;3.41;91.54
55550;BME280;41397;49.972;18.944;2022-12-10T15:31:40;100806.43;;;3.37;91.78
55550;BME280;41397;49.972;18.944;2022-12-10T15:34:46;100804.53;;;3.39;91.96
55550;BME280;41397;49.972;18.944;2022-12-10T15:37:49;100808.91;;;3.41;91.84
55550;BME280;41397;49.972;18.944;2022-12-10T15:47:39;100798.00;;;3.43;91.68
55550;BME280;41397;49.972;18.944;2022-12-10T15:50:42;100793.55;;;3.42;91.72
55550;BME280;41397;49.972;18.944;2022-12-10T15:53:44;100797.93;;;3.44;91.71
55550;BME280;41397;49.972;18.944;2022-12-10T15:56:46;100808.48;;;3.49;91.52
55550;BME280;41397;49.972;18.944;2022-12-10T16:02:59;100798.63;;;3.48;91.65
55550;BME280;41397;49.972;18.944;2022-12-10T16:06:03;100800.37;;;3.49;91.62
55550;BME280;41397;49.972;18.944;2022-12-10T16:09:05;100801.41;;;3.46;91.54
55550;BME280;41397;49.972;18.944;2022-12-10T16:15:21;100806.91;;;3.45;91.51
55550;BME280;41397;49.972;18.944;2022-12-10T16:18:26;100808.11;;;3.39;91.62
55550;BME280;41397;49.972;18.944;2022-12-10T16:21:27;100813.67;;;3.36;91.73
55550;BME280;41397;49.972;18.944;2022-12-10T16:24:29;100795.95;;;3.30;92.02
55550;BME280;41397;49.972;18.944;2022-12-10T16:27:30;100796.11;;;3.27;91.84
55550;BME280;41397;49.972;18.944;2022-12-10T16:30:39;100798.93;;;3.24;92.11
55550;BME280;41397;49.972;18.944;2022-12-10T16:33:42;100806.82;;;3.29;92.07
55550;BME280;41397;49.972;18.944;2022-12-10T16:36:44;100793.23;;;3.30;91.99
55550;BME280;41397;49.972;18.944;2022-12-10T16:39:45;100794.91;;;3.33;91.72
55550;BME280;41397;49.972;18.944;2022-12-10T16:42:46;100785.77;;;3.36;91.70
55550;BME280;41397;49.972;18.944;2022-12-10T16:45:50;100782.74;;;3.42;91.59
55550;BME280;41397;49.972;18.944;2022-12-10T16:48:51;100783.20;;;3.32;91.65
55550;BME280;41397;49.972;18.944;2022-12-10T16:51:53;100786.87;;;3.31;91.95
55550;BME280;41397;49.972;18.944;2022-12-10T16:54:54;100787.99;;;3.27;91.72
55550;BME280;41397;49.972;18.944;2022-12-10T16:57:56;100788.77;;;3.29;91.95
55550;BME280;41397;49.972;18.944;2022-12-10T17:00:57;100792.44;;;3.28;92.14
55550;BME280;41397;49.972;18.944;2022-12-10T17:03:59;100799.68;;;3.28;92.02
55550;BME280;41397;49.972;18.944;2022-12-10T17:07:00;100818.50;;;3.29;92.04
55550;BME280;41397;49.972;18.944;2022-12-10T17:10:02;100817.56;;;3.30;92.04
55550;BME280;41397;49.972;18.944;2022-12-10T17:13:03;100816.60;;;3.31;92.11
55550;BME280;41397;49.972;18.944;2022-12-10T17:16:05;100816.53;;;3.33;92.06
55550;BME280;41397;49.972;18.944;2022-12-10T17:19:11;100816.92;;;3.25;92.18
55550;BME280;41397;49.972;18.944;2022-12-10T17:22:12;100815.79;;;3.29;92.27
55550;BME280;41397;49.972;18.944;2022-12-10T17:25:13;100819.54;;;3.27;92.15
55550;BME280;41397;49.972;18.944;2022-12-10T17:28:18;100817.09;;;3.22;92.62
55550;BME280;41397;49.972;18.944;2022-12-10T17:31:20;100807.15;;;3.23;92.68
55550;BME280;41397;49.972;18.944;2022-12-10T17:34:21;100802.60;;;3.23;92.81
55550;BME280;41397;49.972;18.944;2022-12-10T17:37:25;100807.05;;;3.24;92.38
55550;BME280;41397;49.972;18.944;2022-12-10T17:40:29;100799.96;;;3.22;92.67
55550;BME280;41397;49.972;18.944;2022-12-10T17:43:36;100804.43;;;3.23;92.67
55550;BME280;41397;49.972;18.944;2022-12-10T17:46:38;100805.08;;;3.28;92.77
55550;BME280;41397;49.972;18.944;2022-12-10T17:49:39;100804.66;;;3.18;92.71
55550;BME280;41397;49.972;18.944;2022-12-10T17:52:40;100791.09;;;3.20;92.91
55550;BME280;41397;49.972;18.944;2022-12-10T17:55:53;100793.84;;;3.18;92.72
55550;BME280;41397;49.972;18.944;2022-12-10T17:58:55;100791.16;;;3.18;92.80
55550;BME280;41397;49.972;18.944;2022-12-10T18:01:57;100789.16;;;3.22;92.81
55550;BME280;41397;49.972;18.944;2022-12-10T18:04:58;100790.93;;;3.23;92.74
55550;BME280;41397;49.972;18.944;2022-12-10T18:07:59;100807.21;;;3.21;92.58
55550;BME280;41397;49.972;18.944;2022-12-10T18:11:00;100794.66;;;3.20;92.50
55550;BME280;41397;49.972;18.944;2022-12-10T18:14:02;100795.63;;;3.19;92.49